Time;durP1;ratioP1;P1;durP2;ratioP2;P2;SDS_P1;SDS_P2;PMS_P1;PMS_P2;Temp;Humidity;BMP_temperature;BMP_pressure;BME280_temperature;BME280_humidity;BME280_pressure;Samples;Min_cycle;Max_cycle;Signal;HPM_P1;HPM_P2
2023/08/10 00:02:06;;;;;;;;;9.50;8.00;;;;;-146.67;100.00;57155.34;6361761;22;8847;-75
2023/08/10 00:04:33;;;;;;;;;8.00;7.00;;;;;-146.67;100.00;57155.34;6362374;22;8764;-75
2023/08/10 00:06:58;;;;;;;;;7.50;7.50;;;;;-146.67;100.00;57155.34;6362157;22;8756;-75
2023/08/10 00:09:24;;;;;;;;;8.25;8.25;;;;;-146.67;100.00;57155.34;6387069;22;9837;-75
2023/08/10 00:11:49;;;;;;;;;10.25;10.00;;;;;-146.67;100.00;57155.34;6359617;22;10095;-75
2023/08/10 00:14:15;;;;;;;;;11.00;8.50;;;;;-146.67;100.00;57155.34;6362443;22;9523;-75
2023/08/10 00:16:40;;;;;;;;;9.00;7.50;;;;;-146.67;100.00;57155.34;6359936;22;8757;-75
2023/08/10 00:19:06;;;;;;;;;8.50;6.00;;;;;-146.67;100.00;57155.34;6360447;22;8821;-75
2023/08/10 00:21:31;;;;;;;;;9.25;8.75;;;;;-146.67;100.00;57155.34;6385564;22;9911;-75
2023/08/10 00:23:56;;;;;;;;;8.25;7.00;;;;;-146.67;100.00;57155.34;6386354;22;8776;-75
2023/08/10 00:26:23;;;;;;;;;9.75;8.75;;;;;-146.67;100.00;57155.34;6361683;22;8733;-75
2023/08/10 00:28:49;;;;;;;;;8.00;6.75;;;;;-146.67;100.00;57155.34;6361988;22;8814;-75
2023/08/10 00:31:14;;;;;;;;;10.50;6.25;;;;;-146.67;100.00;57155.34;6359578;22;10144;-75
2023/08/10 00:33:40;;;;;;;;;7.25;6.00;;;;;-146.67;100.00;57155.34;6362035;22;8791;-75
2023/08/10 00:36:09;;;;;;;;;10.75;8.25;;;;;-146.67;100.00;57155.34;6362019;22;8737;-75
2023/08/10 00:38:37;;;;;;;;;11.00;9.00;;;;;-146.67;100.00;57155.34;6362437;22;8732;-75
2023/08/10 00:41:03;;;;;;;;;12.25;9.50;;;;;-146.67;100.00;57155.34;6360992;22;9989;-75
2023/08/10 00:43:28;;;;;;;;;10.25;5.00;;;;;-146.67;100.00;57155.34;6361358;22;9878;-75
2023/08/10 00:45:54;;;;;;;;;9.00;8.25;;;;;-146.67;100.00;57155.34;6361449;22;8772;-75
2023/08/10 00:48:21;;;;;;;;;7.25;7.25;;;;;-146.67;100.00;57155.34;6362421;22;8978;-75
2023/08/10 00:50:47;;;;;;;;;8.00;8.00;;;;;-146.67;100.00;57155.34;6361277;22;8709;-75
2023/08/10 00:53:15;;;;;;;;;8.25;8.00;;;;;-146.67;100.00;57155.34;6361941;22;9756;-75
2023/08/10 00:55:42;;;;;;;;;7.00;7.00;;;;;-146.67;100.00;57155.34;6361797;22;9836;-75
2023/08/10 00:58:08;;;;;;;;;7.00;6.50;;;;;-146.67;100.00;57155.34;6362032;22;9526;-75
2023/08/10 01:00:34;;;;;;;;;7.00;7.00;;;;;-146.67;100.00;57155.34;6361735;22;9720;-75
2023/08/10 01:03:00;;;;;;;;;10.00;7.50;;;;;-146.67;100.00;57155.34;6385416;22;9762;-75
2023/08/10 01:05:33;;;;;;;;;8.00;6.00;;;;;-146.67;100.00;57155.34;6361544;22;9738;-75
2023/08/10 01:08:10;;;;;;;;;8.25;8.25;;;;;-146.67;100.00;57155.34;6361866;22;8681;-75
2023/08/10 01:11:05;;;;;;;;;8.00;7.25;;;;;-146.67;100.00;57155.34;6361198;22;9937;-75
2023/08/10 01:14:03;;;;;;;;;6.00;5.50;;;;;-146.67;100.00;57155.34;6355399;22;9837;-75
2023/08/10 01:16:30;;;;;;;;;5.75;5.75;;;;;-146.67;100.00;57155.34;6295620;22;9723;-75
2023/08/10 01:18:57;;;;;;;;;8.75;6.25;;;;;-146.67;100.00;57155.34;6295287;22;9986;-75
2023/08/10 01:21:40;;;;;;;;;6.00;4.50;;;;;-146.67;100.00;57155.34;6294493;22;9951;-75
2023/08/10 01:24:19;;;;;;;;;10.25;6.75;;;;;-146.67;100.00;57155.34;6295738;22;9964;-75
2023/08/10 01:26:45;;;;;;;;;8.75;8.25;;;;;-146.67;100.00;57155.34;6269291;22;9873;-75
2023/08/10 01:29:11;;;;;;;;;8.00;6.50;;;;;-146.67;100.00;57155.34;6295845;22;9943;-75
2023/08/10 01:31:36;;;;;;;;;7.75;5.00;;;;;-146.67;100.00;57155.34;6295487;22;10158;-75
2023/08/10 01:34:02;;;;;;;;;8.00;6.50;;;;;-146.67;100.00;57155.34;6295742;22;8751;-75
2023/08/10 01:36:28;;;;;;;;;8.25;5.75;;;;;-146.67;100.00;57155.34;6296022;22;8747;-75
2023/08/10 01:38:53;;;;;;;;;12.00;8.00;;;;;-146.67;100.00;57155.34;6295506;22;11490;-75
2023/08/10 01:41:18;;;;;;;;;8.50;7.00;;;;;-146.67;100.00;57155.34;6294907;22;8797;-75
2023/08/10 01:43:44;;;;;;;;;11.50;7.75;;;;;-146.67;100.00;57155.34;6295290;22;8852;-75
2023/08/10 01:46:14;;;;;;;;;9.00;7.75;;;;;-146.67;100.00;57155.34;6269270;22;8760;-75
2023/08/10 01:48:43;;;;;;;;;7.50;6.00;;;;;-146.67;100.00;57155.34;6269845;22;8758;-75
2023/08/10 01:51:12;;;;;;;;;6.75;4.50;;;;;-146.67;100.00;57155.34;6294911;22;10069;-75
2023/08/10 01:53:40;;;;;;;;;11.00;9.00;;;;;-146.67;100.00;57155.34;6336415;22;9833;-75
2023/08/10 01:56:05;;;;;;;;;13.25;9.00;;;;;-146.67;100.00;57155.34;6360364;22;10024;-75
2023/08/10 01:58:31;;;;;;;;;6.75;6.50;;;;;-146.67;100.00;57155.34;6361089;22;10081;-75
2023/08/10 02:00:57;;;;;;;;;8.00;8.00;;;;;-146.67;100.00;57155.34;6359033;22;9980;-75
2023/08/10 02:03:22;;;;;;;;;7.75;6.50;;;;;-146.67;100.00;57155.34;6361038;22;9826;-75
2023/08/10 02:05:48;;;;;;;;;9.25;7.50;;;;;-146.67;100.00;57155.34;6361114;22;8733;-75
2023/08/10 02:08:13;;;;;;;;;7.50;7.00;;;;;-146.67;100.00;57155.34;6360719;22;8721;-75
2023/08/10 02:10:39;;;;;;;;;8.00;5.00;;;;;-146.67;100.00;57155.34;6360938;22;8759;-75
2023/08/10 02:13:04;;;;;;;;;7.75;6.00;;;;;-146.67;100.00;57155.34;6360337;22;8757;-75
2023/08/10 02:15:29;;;;;;;;;5.50;5.00;;;;;-146.67;100.00;57155.34;6361143;22;8757;-75
2023/08/10 02:17:55;;;;;;;;;6.00;4.50;;;;;-146.67;100.00;57155.34;6385214;22;8776;-75
2023/08/10 02:20:21;;;;;;;;;7.00;5.50;;;;;-146.67;100.00;57155.34;6359496;22;8767;-75
2023/08/10 02:22:49;;;;;;;;;8.75;4.25;;;;;-146.67;100.00;57155.34;6361260;22;8737;-75
2023/08/10 02:25:15;;;;;;;;;5.00;5.00;;;;;-146.67;100.00;57155.34;6386909;22;8709;-75
2023/08/10 02:27:41;;;;;;;;;8.25;6.00;;;;;-146.67;100.00;57155.34;6361898;22;9865;-75
2023/08/10 02:30:08;;;;;;;;;4.25;4.25;;;;;-146.67;100.00;57155.34;6386802;22;10137;-75
2023/08/10 02:32:34;;;;;;;;;4.00;4.00;;;;;-146.67;100.00;57155.34;6362492;22;8682;-75
2023/08/10 02:35:00;;;;;;;;;5.00;4.00;;;;;-146.67;100.00;57155.34;6362498;22;9795;-75
2023/08/10 02:37:26;;;;;;;;;7.25;6.00;;;;;-146.67;100.00;57155.34;6362779;22;10685;-75
2023/08/10 02:39:51;;;;;;;;;5.50;4.25;;;;;-146.67;100.00;57155.34;6362801;22;11423;-75
2023/08/10 02:42:17;;;;;;;;;5.25;3.75;;;;;-146.67;100.00;57155.34;6386162;22;8769;-75
2023/08/10 02:44:43;;;;;;;;;5.00;4.50;;;;;-146.67;100.00;57155.34;6362455;22;8838;-75
2023/08/10 02:47:09;;;;;;;;;7.00;5.00;;;;;-146.67;100.00;57155.34;6362100;22;8693;-75
2023/08/10 02:49:34;;;;;;;;;8.00;5.50;;;;;-146.67;100.00;57155.34;6361741;22;10067;-75
2023/08/10 02:52:00;;;;;;;;;6.50;4.25;;;;;-146.67;100.00;57155.34;6362489;22;8812;-75
2023/08/10 02:54:25;;;;;;;;;9.50;5.75;;;;;-146.67;100.00;57155.34;6362301;22;8753;-75
2023/08/10 02:56:50;;;;;;;;;3.75;3.75;;;;;-146.67;100.00;57155.34;6361342;22;8836;-75
2023/08/10 02:59:16;;;;;;;;;3.50;3.50;;;;;-146.67;100.00;57155.34;6359772;22;9783;-75
2023/08/10 03:01:41;;;;;;;;;6.50;5.25;;;;;-146.67;100.00;57155.34;6362427;22;8760;-75
2023/08/10 03:04:07;;;;;;;;;6.75;5.50;;;;;-146.67;100.00;57155.34;6362095;22;8753;-75
2023/08/10 03:06:32;;;;;;;;;6.00;4.75;;;;;-146.67;100.00;57155.34;6362431;22;8771;-75
2023/08/10 03:08:58;;;;;;;;;7.75;6.75;;;;;-146.67;100.00;57155.34;6362187;22;8725;-74
2023/08/10 03:11:23;;;;;;;;;7.25;5.00;;;;;-146.67;100.00;57155.34;6358946;22;8761;-75
2023/08/10 03:13:49;;;;;;;;;6.25;6.25;;;;;-146.67;100.00;57155.34;6362612;22;8765;-75
2023/08/10 03:16:14;;;;;;;;;5.50;5.50;;;;;-146.67;100.00;57155.34;6362156;22;8771;-75
2023/08/10 03:18:39;;;;;;;;;5.50;5.50;;;;;-146.67;100.00;57155.34;6362920;22;9437;-75
2023/08/10 03:21:05;;;;;;;;;6.75;6.75;;;;;-146.67;100.00;57155.34;6361708;22;8792;-75
2023/08/10 03:23:31;;;;;;;;;6.50;5.25;;;;;-146.67;100.00;57155.34;6362620;22;8826;-75
2023/08/10 03:25:56;;;;;;;;;8.00;7.00;;;;;-146.67;100.00;57155.34;6362102;22;8717;-75
2023/08/10 03:28:22;;;;;;;;;9.50;7.00;;;;;-146.67;100.00;57155.34;6362340;22;8767;-75
2023/08/10 03:30:48;;;;;;;;;7.00;7.00;;;;;-146.67;100.00;57155.34;6362750;22;8733;-75
2023/08/10 03:33:13;;;;;;;;;6.75;6.00;;;;;-146.67;100.00;57155.34;6386425;22;10149;-75
2023/08/10 03:35:39;;;;;;;;;3.75;3.50;;;;;-146.67;100.00;57155.34;6362412;22;8749;-75
2023/08/10 03:38:04;;;;;;;;;7.00;7.00;;;;;-146.67;100.00;57155.34;6362258;22;8748;-75
2023/08/10 03:40:29;;;;;;;;;5.50;5.25;;;;;-146.67;100.00;57155.34;6362169;22;8790;-75
2023/08/10 03:42:55;;;;;;;;;8.50;6.00;;;;;-146.67;100.00;57155.34;6361491;22;8752;-76
2023/08/10 03:45:20;;;;;;;;;6.75;6.75;;;;;-146.67;100.00;57155.34;6361916;22;8769;-75
2023/08/10 03:47:46;;;;;;;;;7.00;5.25;;;;;-146.67;100.00;57155.34;6362571;22;8737;-75
2023/08/10 03:50:11;;;;;;;;;4.50;4.50;;;;;-146.67;100.00;57155.34;6359544;22;8873;-75
2023/08/10 03:52:36;;;;;;;;;6.75;5.75;;;;;-146.67;100.00;57155.34;6362369;22;8741;-75
2023/08/10 03:55:03;;;;;;;;;6.00;6.00;;;;;-146.67;100.00;57155.34;6361898;22;8813;-75
2023/08/10 03:57:28;;;;;;;;;5.25;4.25;;;;;-146.67;100.00;57155.34;6359150;22;10013;-75
2023/08/10 03:59:54;;;;;;;;;8.75;5.75;;;;;-146.67;100.00;57155.34;6386808;22;10225;-75
2023/08/10 04:02:19;;;;;;;;;6.25;5.75;;;;;-146.67;100.00;57155.34;6361837;22;8776;-75
2023/08/10 04:04:44;;;;;;;;;5.00;5.00;;;;;-146.67;100.00;57155.34;6362248;22;8768;-75
2023/08/10 04:07:10;;;;;;;;;6.25;5.25;;;;;-146.67;100.00;57155.34;6362029;22;8890;-74
2023/08/10 04:09:35;;;;;;;;;7.25;6.25;;;;;-146.67;100.00;57155.34;6359569;22;8749;-75
2023/08/10 04:12:01;;;;;;;;;9.00;4.25;;;;;-146.67;100.00;57155.34;6359578;22;8910;-75
2023/08/10 04:14:26;;;;;;;;;6.75;5.75;;;;;-146.67;100.00;57155.34;6361611;22;8729;-75
2023/08/10 04:16:52;;;;;;;;;4.00;4.00;;;;;-146.67;100.00;57155.34;6386411;22;9915;-75
2023/08/10 04:19:17;;;;;;;;;5.50;5.00;;;;;-146.67;100.00;57155.34;6361264;22;8737;-75
2023/08/10 04:21:44;;;;;;;;;6.00;5.75;;;;;-146.67;100.00;57155.34;6361358;22;8807;-75
2023/08/10 04:24:10;;;;;;;;;4.25;4.00;;;;;-146.67;100.00;57155.34;6361717;22;8690;-74
2023/08/10 04:26:36;;;;;;;;;6.25;6.25;;;;;-146.67;100.00;57155.34;6362092;22;10250;-75
2023/08/10 04:29:02;;;;;;;;;7.25;5.00;;;;;-146.67;100.00;57155.34;6360221;22;8745;-75
2023/08/10 04:31:28;;;;;;;;;7.25;5.00;;;;;-146.67;100.00;57155.34;6361844;22;9996;-75
2023/08/10 04:33:53;;;;;;;;;5.75;5.00;;;;;-146.67;100.00;57155.34;6360153;22;8749;-75
2023/08/10 04:36:18;;;;;;;;;9.75;5.00;;;;;-146.67;100.00;57155.34;6361525;22;8775;-75
2023/08/10 04:38:44;;;;;;;;;11.25;7.25;;;;;-146.67;100.00;57155.34;6361846;22;9531;-74
2023/08/10 04:41:09;;;;;;;;;5.75;5.25;;;;;-146.67;100.00;57155.34;6361421;22;8745;-75
2023/08/10 04:43:34;;;;;;;;;3.00;3.00;;;;;-146.67;100.00;57155.34;6386097;22;8803;-75
2023/08/10 04:46:00;;;;;;;;;5.75;5.00;;;;;-146.67;100.00;57155.34;6361588;22;8741;-75
2023/08/10 04:48:25;;;;;;;;;6.00;6.00;;;;;-146.67;100.00;57155.34;6361500;22;8823;-74
2023/08/10 04:50:51;;;;;;;;;7.00;5.00;;;;;-146.67;100.00;57155.34;6359443;22;8806;-75
2023/08/10 04:53:17;;;;;;;;;6.75;6.00;;;;;-146.67;100.00;57155.34;6359261;22;8828;-75
2023/08/10 04:55:42;;;;;;;;;8.50;6.00;;;;;-146.67;100.00;57155.34;6359361;22;10222;-75
2023/08/10 04:58:07;;;;;;;;;7.00;4.00;;;;;-146.67;100.00;57155.34;6361338;22;8768;-75
2023/08/10 05:00:33;;;;;;;;;5.00;5.00;;;;;-146.67;100.00;57155.34;6361049;22;8811;-74
2023/08/10 05:02:58;;;;;;;;;6.75;5.00;;;;;-146.67;100.00;57155.34;6386178;22;9047;-75
2023/08/10 05:05:23;;;;;;;;;5.50;5.50;;;;;-146.67;100.00;57155.34;6361321;22;8761;-75
2023/08/10 05:07:49;;;;;;;;;5.75;5.75;;;;;-146.67;100.00;57155.34;6359249;22;9157;-75
2023/08/10 05:10:14;;;;;;;;;5.00;5.00;;;;;-146.67;100.00;57155.34;6361820;22;8733;-75
2023/08/10 05:12:40;;;;;;;;;4.25;4.25;;;;;-146.67;100.00;57155.34;6360706;22;8818;-75
2023/08/10 05:15:06;;;;;;;;;4.75;4.25;;;;;-146.67;100.00;57155.34;6361607;22;9297;-75
2023/08/10 05:17:32;;;;;;;;;9.25;5.00;;;;;-146.67;100.00;57155.34;6386306;22;8737;-75
2023/08/10 05:19:58;;;;;;;;;7.00;6.00;;;;;-146.67;100.00;57155.34;6359498;22;10023;-76
2023/08/10 05:22:24;;;;;;;;;4.00;4.00;;;;;-146.67;100.00;57155.34;6360550;22;10231;-75
2023/08/10 05:24:49;;;;;;;;;6.25;4.00;;;;;-146.67;100.00;57155.34;6361725;22;8757;-75
2023/08/10 05:27:14;;;;;;;;;7.50;5.50;;;;;-146.67;100.00;57155.34;6361450;22;8775;-75
2023/08/10 05:29:40;;;;;;;;;5.00;5.00;;;;;-146.67;100.00;57155.34;6361586;22;9488;-75
2023/08/10 05:32:05;;;;;;;;;8.50;6.75;;;;;-146.67;100.00;57155.34;6361874;22;9499;-75
2023/08/10 05:34:31;;;;;;;;;4.00;4.00;;;;;-146.67;100.00;57155.34;6361430;22;9490;-75
2023/08/10 05:36:56;;;;;;;;;5.75;4.25;;;;;-146.67;100.00;57155.34;6361308;22;8761;-75
2023/08/10 05:39:23;;;;;;;;;10.00;6.00;;;;;-146.67;100.00;57155.34;6361585;22;8776;-75
2023/08/10 05:41:48;;;;;;;;;8.25;5.50;;;;;-146.67;100.00;57155.34;6361285;22;8689;-75
2023/08/10 05:44:13;;;;;;;;;6.75;6.00;;;;;-146.67;100.00;57155.34;6358960;22;10042;-75
2023/08/10 05:46:39;;;;;;;;;5.00;5.00;;;;;-146.67;100.00;57155.34;6385513;22;8761;-75
2023/08/10 05:49:04;;;;;;;;;6.00;4.00;;;;;-146.67;100.00;57155.34;6361643;22;8741;-75
2023/08/10 05:51:29;;;;;;;;;7.00;6.00;;;;;-146.67;100.00;57155.34;6360169;22;8864;-75
2023/08/10 05:53:55;;;;;;;;;9.00;7.50;;;;;-146.67;100.00;57155.34;6361412;22;8790;-75
2023/08/10 05:56:20;;;;;;;;;6.00;5.75;;;;;-146.67;100.00;57155.34;6358762;22;8777;-75
2023/08/10 05:58:45;;;;;;;;;5.75;5.00;;;;;-146.67;100.00;57155.34;6361761;22;8767;-75
2023/08/10 06:01:11;;;;;;;;;11.00;9.00;;;;;-146.67;100.00;57155.34;6363067;22;8737;-75
2023/08/10 06:03:37;;;;;;;;;10.00;8.00;;;;;-146.67;100.00;57155.34;6362207;22;8780;-75
2023/08/10 06:06:06;;;;;;;;;8.75;7.00;;;;;-146.67;100.00;57155.34;6362538;22;8716;-74
2023/08/10 06:08:33;;;;;;;;;7.00;6.75;;;;;-146.67;100.00;57155.34;6362056;22;11369;-75
2023/08/10 06:11:00;;;;;;;;;5.25;5.25;;;;;-146.67;100.00;57155.34;6363001;22;9939;-75
2023/08/10 06:13:25;;;;;;;;;4.75;4.75;;;;;-146.67;100.00;57155.34;6362758;22;10035;-75
2023/08/10 06:15:50;;;;;;;;;6.00;6.00;;;;;-146.67;100.00;57155.34;6363062;22;9837;-75
2023/08/10 06:18:16;;;;;;;;;8.25;7.25;;;;;-146.67;100.00;57155.34;6361034;22;8753;-75
2023/08/10 06:20:42;;;;;;;;;10.25;7.75;;;;;-146.67;100.00;57155.34;6361565;22;8820;-75
2023/08/10 06:23:07;;;;;;;;;8.75;7.00;;;;;-146.67;100.00;57155.34;6360611;22;11213;-75
2023/08/10 06:25:33;;;;;;;;;6.75;6.75;;;;;-146.67;100.00;57155.34;6362621;22;8763;-75
2023/08/10 06:27:58;;;;;;;;;7.25;5.50;;;;;-146.67;100.00;57155.34;6360358;22;8816;-75
2023/08/10 06:30:25;;;;;;;;;8.75;7.50;;;;;-146.67;100.00;57155.34;6362966;22;8733;-75
2023/08/10 06:32:51;;;;;;;;;7.25;7.25;;;;;-146.67;100.00;57155.34;6359815;22;10136;-75
2023/08/10 06:35:19;;;;;;;;;8.50;7.00;;;;;-146.67;100.00;57155.34;6362838;22;9699;-75
2023/08/10 06:37:45;;;;;;;;;7.50;6.25;;;;;-146.67;100.00;57155.34;6362135;22;9751;-75
2023/08/10 06:40:11;;;;;;;;;6.25;6.00;;;;;-146.67;100.00;57155.34;6362809;22;9638;-75
2023/08/10 06:42:37;;;;;;;;;6.25;6.25;;;;;-146.67;100.00;57155.34;6361760;22;8725;-75
2023/08/10 06:45:06;;;;;;;;;5.67;5.33;;;;;-146.67;100.00;57155.34;6362471;22;9587;-75
2023/08/10 06:47:31;;;;;;;;;7.50;7.00;;;;;-146.67;100.00;57155.34;6360168;22;8698;-75
2023/08/10 06:49:57;;;;;;;;;8.25;7.00;;;;;-146.67;100.00;57155.34;6362079;22;9507;-75
2023/08/10 06:52:24;;;;;;;;;6.50;6.50;;;;;-146.67;100.00;57155.34;6362593;22;8713;-74
2023/08/10 06:54:50;;;;;;;;;6.33;6.33;;;;;-146.67;100.00;57155.34;6386239;22;9597;-75
2023/08/10 06:57:21;;;;;;;;;7.67;7.00;;;;;-146.67;100.00;57155.34;6362461;22;9487;-75
2023/08/10 06:59:46;;;;;;;;;6.33;6.33;;;;;-146.67;100.00;57155.34;6387267;22;9446;-75
2023/08/10 07:02:12;;;;;;;;;7.50;6.75;;;;;-146.67;100.00;57155.34;6362312;22;9582;-75
2023/08/10 07:04:37;;;;;;;;;6.00;6.00;;;;;-146.67;100.00;57155.34;6362656;22;8749;-74
2023/08/10 07:07:03;;;;;;;;;6.33;6.33;;;;;-146.67;100.00;57155.34;6362879;22;8753;-75
2023/08/10 07:09:28;;;;;;;;;8.75;7.00;;;;;-146.67;100.00;57155.34;6362702;22;8752;-75
2023/08/10 07:11:54;;;;;;;;;12.00;8.75;;;;;-146.67;100.00;57155.34;6362252;22;8776;-75
2023/08/10 07:14:19;;;;;;;;;6.67;6.00;;;;;-146.67;100.00;57155.34;6363006;22;8783;-74
2023/08/10 07:16:45;;;;;;;;;5.67;5.67;;;;;-146.67;100.00;57155.34;6386786;22;8836;-75
2023/08/10 07:19:10;;;;;;;;;8.33;6.00;;;;;-146.67;100.00;57155.34;6362436;22;8721;-75
2023/08/10 07:21:36;;;;;;;;;10.67;6.00;;;;;-146.67;100.00;57155.34;6362004;22;8772;-75
2023/08/10 07:24:01;;;;;;;;;8.25;6.00;;;;;-146.67;100.00;57155.34;6360531;22;8757;-75
2023/08/10 07:26:27;;;;;;;;;5.67;4.00;;;;;-146.67;100.00;57155.34;6362612;22;8745;-75
2023/08/10 07:28:52;;;;;;;;;6.00;6.00;;;;;-146.67;100.00;57155.34;6360439;22;8753;-75
2023/08/10 07:31:17;;;;;;;;;6.25;6.25;;;;;-146.67;100.00;57155.34;6386876;22;9915;-75
2023/08/10 07:33:43;;;;;;;;;12.00;8.00;;;;;-146.67;100.00;57155.34;6360270;22;8761;-75
2023/08/10 07:36:08;;;;;;;;;7.50;6.00;;;;;-146.67;100.00;57155.34;6362749;22;8749;-75
2023/08/10 07:38:34;;;;;;;;;7.50;5.00;;;;;-146.67;100.00;57155.34;6362722;22;9492;-75
2023/08/10 07:40:59;;;;;;;;;7.50;6.75;;;;;-146.67;100.00;57155.34;6362305;22;8761;-75
2023/08/10 07:43:24;;;;;;;;;7.50;6.00;;;;;-146.67;100.00;57155.34;6362063;22;8796;-75
2023/08/10 07:45:50;;;;;;;;;7.00;5.50;;;;;-146.67;100.00;57155.34;6361712;22;8730;-75
2023/08/10 07:48:15;;;;;;;;;8.50;6.75;;;;;-146.67;100.00;57155.34;6360509;22;8751;-75
2023/08/10 07:50:41;;;;;;;;;8.00;6.00;;;;;-146.67;100.00;57155.34;6359913;22;9779;-75
2023/08/10 07:53:06;;;;;;;;;7.25;7.25;;;;;-146.67;100.00;57155.34;6362642;22;8840;-75
2023/08/10 07:55:31;;;;;;;;;7.75;6.25;;;;;-146.67;100.00;57155.34;6362732;22;8852;-75
2023/08/10 07:57:57;;;;;;;;;6.75;6.25;;;;;-146.67;100.00;57155.34;6361636;22;8759;-75
2023/08/10 08:00:22;;;;;;;;;9.25;6.75;;;;;-146.67;100.00;57155.34;6362079;22;8794;-75
2023/08/10 08:02:49;;;;;;;;;7.00;7.00;;;;;-146.67;100.00;57155.34;6362596;22;8841;-75
2023/08/10 08:05:16;;;;;;;;;8.00;7.00;;;;;-146.67;100.00;57155.34;6362651;22;8855;-75
2023/08/10 08:07:45;;;;;;;;;5.00;5.00;;;;;-146.67;100.00;57155.34;6362183;22;9383;-75
2023/08/10 08:10:11;;;;;;;;;5.67;5.00;;;;;-146.67;100.00;57155.34;6362522;22;9523;-75
2023/08/10 08:12:36;;;;;;;;;4.67;4.67;;;;;-146.67;100.00;57155.34;6361381;22;9362;-75
2023/08/10 08:15:03;;;;;;;;;3.00;3.00;;;;;-146.67;100.00;57155.34;6361607;22;8737;-75
2023/08/10 08:18:14;;;;;;;;;3.00;3.00;;;;;-146.67;100.00;57155.34;6360170;22;8705;-75
2023/08/10 08:20:40;;;;;;;;;4.00;3.00;;;;;-146.67;100.00;57155.34;6262820;22;9465;-75
2023/08/10 08:23:05;;;;;;;;;5.33;3.67;;;;;-146.67;100.00;57155.34;6265497;22;9443;-75
2023/08/10 08:25:30;;;;;;;;;3.67;2.33;;;;;-146.67;100.00;57155.34;6265470;22;8760;-75
2023/08/10 08:27:56;;;;;;;;;3.67;3.67;;;;;-146.67;100.00;57155.34;6239320;22;8815;-75
2023/08/10 08:30:25;;;;;;;;;2.00;2.00;;;;;-146.67;100.00;57155.34;6265433;22;8756;-75
2023/08/10 08:32:50;;;;;;;;;8.00;5.67;;;;;-146.67;100.00;57155.34;6265130;22;8807;-75
2023/08/10 08:35:16;;;;;;;;;5.33;4.00;;;;;-146.67;100.00;57155.34;6265997;22;9309;-75
2023/08/10 08:37:41;;;;;;;;;3.33;2.33;;;;;-146.67;100.00;57155.34;6265732;22;8826;-75
2023/08/10 08:40:07;;;;;;;;;6.00;5.33;;;;;-146.67;100.00;57155.34;6265604;22;8760;-75
2023/08/10 08:42:33;;;;;;;;;1.00;1.00;;;;;-146.67;100.00;57155.34;6265315;22;8776;-75
2023/08/10 08:44:59;;;;;;;;;2.67;2.67;;;;;-146.67;100.00;57155.34;6264477;22;8752;-75
2023/08/10 08:47:25;;;;;;;;;4.67;4.67;;;;;-146.67;100.00;57155.34;6265814;22;9228;-75
2023/08/10 08:49:50;;;;;;;;;6.33;3.33;;;;;-146.67;100.00;57155.34;6264977;22;8779;-75
2023/08/10 08:52:16;;;;;;;;;3.00;3.00;;;;;-146.67;100.00;57155.34;6265107;22;8756;-75
2023/08/10 08:54:42;;;;;;;;;3.67;3.67;;;;;-146.67;100.00;57155.34;6239633;22;9124;-75
2023/08/10 08:57:08;;;;;;;;;6.00;5.00;;;;;-146.67;100.00;57155.34;6300168;22;8708;-75
2023/08/10 08:59:33;;;;;;;;;3.00;3.00;;;;;-146.67;100.00;57155.34;6361475;22;8827;-75
2023/08/10 09:02:01;;;;;;;;;5.67;3.00;;;;;-146.67;100.00;57155.34;6362020;22;8745;-75
2023/08/10 09:04:26;;;;;;;;;2.33;2.33;;;;;-146.67;100.00;57155.34;6362526;22;8690;-75
2023/08/10 09:06:51;;;;;;;;;3.33;3.33;;;;;-146.67;100.00;57155.34;6362454;22;9241;-75
2023/08/10 09:09:17;;;;;;;;;8.33;3.67;;;;;-146.67;100.00;57155.34;6362129;22;8744;-75
2023/08/10 09:11:42;;;;;;;;;3.33;2.67;;;;;-146.67;100.00;57155.34;6362099;22;8752;-75
2023/08/10 09:14:08;;;;;;;;;3.33;3.33;;;;;-146.67;100.00;57155.34;6361774;22;8834;-75
2023/08/10 09:16:36;;;;;;;;;3.00;3.00;;;;;-146.67;100.00;57155.34;6362608;22;8706;-75
2023/08/10 09:19:02;;;;;;;;;4.33;2.67;;;;;-146.67;100.00;57155.34;6361497;22;9406;-75
2023/08/10 09:21:31;;;;;;;;;3.00;3.00;;;;;-146.67;100.00;57155.34;6358675;22;9231;-75
2023/08/10 09:23:57;;;;;;;;;2.67;2.00;;;;;-146.67;100.00;57155.34;6361811;22;8744;-75
2023/08/10 09:26:24;;;;;;;;;3.67;3.00;;;;;-146.67;100.00;57155.34;6386041;22;9035;-75
2023/08/10 09:28:50;;;;;;;;;3.33;3.00;;;;;-146.67;100.00;57155.34;6361496;22;8681;-75
2023/08/10 09:31:26;;;;;;;;;3.00;3.00;;;;;-146.67;100.00;57155.34;6361510;22;8923;-75
2023/08/10 09:33:56;;;;;;;;;4.00;3.00;;;;;-146.67;100.00;57155.34;6361778;22;9005;-75
2023/08/10 09:36:24;;;;;;;;;2.67;2.67;;;;;-146.67;100.00;57155.34;6360599;22;8770;-75
2023/08/10 09:38:51;;;;;;;;;4.67;3.67;;;;;-146.67;100.00;57155.34;6363458;22;9167;-75
2023/08/10 09:41:20;;;;;;;;;3.33;3.33;;;;;-146.67;100.00;57155.34;6360302;22;9069;-75
2023/08/10 09:43:46;;;;;;;;;3.33;2.33;;;;;-146.67;100.00;57155.34;6363477;22;8920;-75
2023/08/10 09:46:14;;;;;;;;;4.00;2.00;;;;;-146.67;100.00;57155.34;6363180;22;9011;-75
2023/08/10 09:48:48;;;;;;;;;2.33;2.00;;;;;-146.67;100.00;57155.34;6363289;22;9039;-75
2023/08/10 09:51:14;;;;;;;;;2.33;2.00;;;;;-146.67;100.00;57155.34;6360287;22;8893;-75
2023/08/10 09:53:40;;;;;;;;;4.00;2.67;;;;;-146.67;100.00;57155.34;6363197;22;9012;-75
2023/08/10 09:56:07;;;;;;;;;2.33;2.00;;;;;-146.67;100.00;57155.34;6362827;22;8721;-75
2023/08/10 09:58:40;;;;;;;;;3.33;2.00;;;;;-146.67;100.00;57155.34;6360671;22;10235;-75
2023/08/10 10:01:07;;;;;;;;;2.33;2.33;;;;;-146.67;100.00;57155.34;6387961;22;8897;-75
2023/08/10 10:03:33;;;;;;;;;2.33;2.00;;;;;-146.67;100.00;57155.34;6362313;22;8781;-75
2023/08/10 10:06:00;;;;;;;;;3.33;2.33;;;;;-146.67;100.00;57155.34;6363212;22;8883;-75
2023/08/10 10:08:26;;;;;;;;;2.50;2.50;;;;;-146.67;100.00;57155.34;6363002;22;8704;-74
2023/08/10 10:10:56;;;;;;;;;1.75;1.75;;;;;-146.67;100.00;57155.34;6362955;22;8681;-75
2023/08/10 10:13:22;;;;;;;;;4.00;3.00;;;;;-146.67;100.00;57155.34;6360631;22;8697;-75
2023/08/10 10:15:48;;;;;;;;;3.67;0.33;;;;;-146.67;100.00;57155.34;6363439;22;8741;-75
2023/08/10 10:18:14;;;;;;;;;1.75;1.75;;;;;-146.67;100.00;57155.34;6362930;22;8906;-75
2023/08/10 10:20:42;;;;;;;;;3.00;3.00;;;;;-146.67;100.00;57155.34;6362455;22;8733;-75
2023/08/10 10:23:18;;;;;;;;;2.50;2.50;;;;;-146.67;100.00;57155.34;6362415;22;11338;-75
2023/08/10 10:26:06;;;;;;;;;3.00;3.00;;;;;-146.67;100.00;57155.34;6362473;22;8835;-75
2023/08/10 10:28:33;;;;;;;;;3.75;2.75;;;;;-146.67;100.00;57155.34;6360626;22;8737;-75
2023/08/10 10:31:04;;;;;;;;;3.25;2.75;;;;;-146.67;100.00;57155.34;6362950;22;8745;-75
2023/08/10 10:33:30;;;;;;;;;1.75;1.75;;;;;-146.67;100.00;57155.34;6362589;22;8745;-75
2023/08/10 10:36:15;;;;;;;;;1.00;1.00;;;;;-146.67;100.00;57155.34;6360749;22;8824;-75
2023/08/10 10:38:41;;;;;;;;;1.75;1.75;;;;;-146.67;100.00;57155.34;6362632;22;8693;-75
2023/08/10 10:41:14;;;;;;;;;2.00;2.00;;;;;-146.67;100.00;57155.34;6360305;22;8701;-75
2023/08/10 10:43:39;;;;;;;;;2.25;2.25;;;;;-146.67;100.00;57155.34;6360296;22;8776;-75
2023/08/10 10:46:05;;;;;;;;;2.67;2.67;;;;;-146.67;100.00;57155.34;6387665;22;8745;-75
2023/08/10 10:48:35;;;;;;;;;3.00;3.00;;;;;-146.67;100.00;57155.34;6360865;22;9953;-75
2023/08/10 10:51:04;;;;;;;;;4.75;3.50;;;;;-146.67;100.00;57155.34;6360426;22;9673;-75
2023/08/10 10:53:32;;;;;;;;;3.25;3.25;;;;;-146.67;100.00;57155.34;6362312;22;8697;-75
2023/08/10 10:55:59;;;;;;;;;1.00;1.00;;;;;-146.67;100.00;57155.34;6363002;22;8737;-76
2023/08/10 10:58:28;;;;;;;;;1.50;1.50;;;;;-146.67;100.00;57155.34;6362189;22;8690;-75
2023/08/10 11:00:54;;;;;;;;;2.00;1.25;;;;;-146.67;100.00;57155.34;6363119;22;8682;-75
2023/08/10 11:03:19;;;;;;;;;1.67;1.67;;;;;-146.67;100.00;57155.34;6362712;22;8808;-75
2023/08/10 11:05:45;;;;;;;;;2.67;2.67;;;;;-146.67;100.00;57155.34;6362901;22;8753;-75
2023/08/10 11:08:12;;;;;;;;;3.00;2.00;;;;;-146.67;100.00;57155.34;6360776;22;10054;-75
2023/08/10 11:10:39;;;;;;;;;2.50;2.50;;;;;-146.67;100.00;57155.34;6362236;22;8666;-76
2023/08/10 11:13:09;;;;;;;;;1.00;1.00;;;;;-146.67;100.00;57155.34;6362772;22;8846;-75
2023/08/10 11:15:36;;;;;;;;;2.00;2.00;;;;;-146.67;100.00;57155.34;6362220;22;8693;-75